Time;durP1;ratioP1;P1;durP2;ratioP2;P2;SDS_P1;SDS_P2;PMS_P1;PMS_P2;Temp;Humidity;BMP_temperature;BMP_pressure;BME280_temperature;BME280_humidity;BME280_pressure;Samples;Min_cycle;Max_cycle;Signal;HPM_P1;HPM_P2
2021/12/22 18:51:57;;;;;;;;;;;;;;;;;;83084;27;4209975;-81
2021/12/22 18:52:02;;;;;;;;;;;;;;;;;;174930;28;1997;-80
2021/12/22 18:52:07;;;;;;;;;;;;;;;;;;174705;28;2144;-78
2021/12/22 18:52:13;;;;;;;;;;;;;;;;;;148008;33;1243;-82
2021/12/22 18:52:19;;;;;;;;;;;;;;;;;;170178;28;87691;-80
2021/12/22 18:52:24;;;;;;;;;;;;;;;;;;173400;28;1324;-79
2021/12/22 18:52:50;;;;;;;7.24;2.69;;;19.80;55.20;;;;;;492566;27;1201531;-82
2021/12/22 18:53:01;;;;;;;6.80;2.92;;;19.80;55.00;;;;;;175305;28;1218;-85
2021/12/22 18:53:07;;;;;;;6.36;3.06;;;19.80;55.10;;;;;;173886;28;1506;-82
2021/12/22 18:53:14;;;;;;;5.95;3.13;;;19.80;55.30;;;;;;174417;28;1443;-80
2021/12/22 18:53:20;;;;;;;4.97;3.10;;;19.70;55.30;;;;;;173834;28;1417;-80
2021/12/22 18:53:27;;;;;;;4.90;3.13;;;19.70;55.40;;;;;;169627;28;111515;-84
2021/12/22 18:53:32;;;;;;;5.10;3.10;;;19.70;55.40;;;;;;147004;33;9516;-81
2021/12/22 18:53:38;;;;;;;6.10;3.13;;;19.70;55.40;;;;;;153242;28;9793;-80
2021/12/22 18:53:44;;;;;;;5.35;3.10;;;19.60;55.40;;;;;;171964;28;5691;-79
2021/12/22 18:53:54;;;;;;;6.13;3.13;;;19.60;55.50;;;;;;172799;28;5114;-80
2021/12/22 18:54:00;;;;;;;6.09;3.10;;;19.60;55.50;;;;;;171534;28;7705;-80
2021/12/22 18:54:05;;;;;;;6.18;3.10;;;19.60;55.50;;;;;;172634;28;5084;-79
2021/12/22 18:54:11;;;;;;;5.70;3.17;;;19.60;55.60;;;;;;172506;28;5234;-79
2021/12/22 18:54:17;;;;;;;5.65;3.20;;;19.60;55.60;;;;;;173237;28;5032;-81
2021/12/22 18:54:23;;;;;;;5.37;3.17;;;19.60;55.60;;;;;;171668;28;5115;-79
2021/12/22 18:54:28;;;;;;;5.28;3.10;;;19.60;55.60;;;;;;172350;28;5083;-81
2021/12/22 18:54:34;;;;;;;4.10;3.10;;;19.50;55.60;;;;;;174264;28;6667;-80
2021/12/22 18:54:39;;;;;;;4.18;3.00;;;19.50;55.60;;;;;;174174;28;5086;-82
2021/12/22 18:54:45;;;;;;;4.27;3.00;;;19.50;55.70;;;;;;173361;28;5521;-83
2021/12/22 18:54:50;;;;;;;4.05;3.00;;;19.50;55.70;;;;;;171842;28;5115;-85
2021/12/22 18:54:56;;;;;;;4.00;3.00;;;19.50;55.70;;;;;;171794;28;5089;-81
2021/12/22 18:55:02;;;;;;;3.85;3.00;;;19.50;55.70;;;;;;171566;28;5120;-80
2021/12/22 18:55:07;;;;;;;5.05;3.15;;;19.50;55.80;;;;;;172014;28;5317;-79
2021/12/22 18:55:13;;;;;;;5.47;3.20;;;19.50;55.80;;;;;;172670;28;5057;-81
2021/12/22 18:55:20;;;;;;;5.72;3.10;;;19.50;55.80;;;;;;172408;28;5165;-85
2021/12/22 18:55:26;;;;;;;6.14;3.16;;;19.40;55.80;;;;;;173182;28;5282;-82
2021/12/22 18:55:31;;;;;;;6.20;3.10;;;19.40;55.80;;;;;;172309;28;5249;-82
2021/12/22 18:55:37;;;;;;;4.80;3.00;;;19.40;55.80;;;;;;171776;28;5262;-80
2021/12/22 18:55:43;;;;;;;4.38;2.92;;;19.40;55.90;;;;;;170970;28;5322;-83
2021/12/22 18:55:48;;;;;;;4.22;3.08;;;19.40;55.90;;;;;;171724;28;5808;-82
2021/12/22 18:55:55;;;;;;;4.13;3.03;;;19.40;55.90;;;;;;171816;28;5324;-80
2021/12/22 18:56:01;;;;;;;4.10;3.14;;;19.40;56.00;;;;;;172812;28;6528;-84
2021/12/22 18:56:07;;;;;;;4.60;3.23;;;19.40;56.00;;;;;;171080;28;5069;-81
2021/12/22 18:56:13;;;;;;;4.50;3.10;;;19.40;56.00;;;;;;170492;28;5307;-83
2021/12/22 18:56:18;;;;;;;4.55;3.10;;;19.30;56.00;;;;;;172352;28;5181;-80
2021/12/22 18:56:26;;;;;;;4.70;3.00;;;19.30;56.00;;;;;;170478;28;5164;-80
2021/12/22 18:56:31;;;;;;;4.82;2.90;;;19.30;56.10;;;;;;171009;28;6763;-82
2021/12/22 18:56:37;;;;;;;6.25;2.97;;;19.40;56.10;;;;;;170790;28;5224;-84
2021/12/22 18:56:45;;;;;;;7.13;3.10;;;19.30;56.10;;;;;;171361;28;5304;-84
2021/12/22 18:56:51;;;;;;;6.77;3.10;;;19.30;56.10;;;;;;170709;28;5562;-83
2021/12/22 18:56:56;;;;;;;6.60;3.10;;;19.30;56.10;;;;;;162706;28;5094;-82
2021/12/22 18:57:05;;;;;;;6.50;3.15;;;19.30;56.20;;;;;;170938;28;5279;-85
2021/12/22 18:57:11;;;;;;;4.53;3.20;;;19.30;56.20;;;;;;171261;28;5532;-86
2021/12/22 18:57:17;;;;;;;5.13;3.23;;;19.30;56.20;;;;;;171098;28;5684;-86
2021/12/22 18:57:25;;;;;;;5.03;3.30;;;19.30;56.20;;;;;;173097;28;5306;-85
2021/12/22 18:57:34;;;;;;;5.23;3.28;;;19.30;56.30;;;;;;167449;28;7069;-84
2021/12/22 18:57:44;;;;;;;4.97;3.19;;;19.30;56.30;;;;;;169651;28;6322;-83
2021/12/22 18:57:52;;;;;;;4.28;3.09;;;19.30;56.30;;;;;;150503;28;7481;-85
2021/12/22 18:57:59;;;;;;;4.46;3.09;;;19.30;56.30;;;;;;162761;28;6191;-85
2021/12/22 18:58:08;;;;;;;4.55;3.10;;;19.30;56.40;;;;;;171159;28;5225;-86
2021/12/22 18:58:18;;;;;;;4.63;3.06;;;19.30;56.40;;;;;;161292;28;6263;-85
2021/12/22 18:58:32;;;;;;;5.00;3.03;;;19.30;56.40;;;;;;162211;28;5101;-84
2021/12/22 18:58:38;;;;;;;4.36;3.11;;;19.30;56.40;;;;;;161621;28;8027;-83
2021/12/22 18:58:46;;;;;;;3.63;3.10;;;19.30;56.40;;;;;;160512;28;5151;-82
2021/12/22 18:59:06;;;;;;;3.77;3.10;;;19.30;56.50;;;;;;165696;28;5541;-82
2021/12/22 18:59:14;;;;;;;4.16;3.04;;;19.20;56.50;;;;;;168919;28;6117;-85
2021/12/22 18:59:19;;;;;;;3.87;3.00;;;19.20;56.50;;;;;;153416;28;6859;-83
2021/12/22 18:59:25;;;;;;;4.03;3.00;;;19.20;56.50;;;;;;171895;28;5229;-83
2021/12/22 18:59:36;;;;;;;4.40;3.00;;;19.20;56.60;;;;;;163512;28;5126;-85
2021/12/22 18:59:47;;;;;;;4.36;2.96;;;19.20;56.50;;;;;;160186;28;6505;-85
2021/12/22 18:59:54;;;;;;;4.35;2.96;;;19.20;56.60;;;;;;155633;28;5365;-86
2021/12/22 19:00:12;;;;;;;3.47;2.90;;;19.20;56.50;;;;;;161165;28;5497;-83
2021/12/22 19:00:18;;;;;;;3.85;2.99;;;19.20;56.60;;;;;;159715;28;6203;-86
2021/12/22 19:00:26;;;;;;;4.78;3.20;;;19.20;56.60;;;;;;157465;28;5125;-86
2021/12/22 19:00:47;;;;;;;4.80;3.20;;;19.20;56.60;;;;;;169967;28;5108;-83
2021/12/22 19:00:59;;;;;;;4.45;3.28;;;19.20;56.70;;;;;;146204;29;7228;-85
2021/12/22 19:01:05;;;;;;;4.47;3.35;;;19.20;56.70;;;;;;159040;28;5683;-85
2021/12/22 19:01:15;;;;;;;4.28;3.28;;;19.10;56.80;;;;;;169632;28;6981;-83
2021/12/22 19:01:38;;;;;;;4.33;3.23;;;19.20;56.80;;;;;;161540;28;7570;-86
2021/12/22 19:01:59;;;;;;;4.76;3.30;;;19.20;56.80;;;;;;157696;28;7574;-86
2021/12/22 19:02:26;;;;;;;5.50;3.33;;;19.20;56.80;;;;;;169721;29;1610;-84
2021/12/22 19:02:41;;;;;;;5.24;3.36;;;19.10;56.80;;;;;;144994;33;7694;-82
2021/12/22 19:02:49;;;;;;;4.40;3.13;;;19.20;56.80;;;;;;169285;29;2048;-82
2021/12/22 19:03:06;;;;;;;4.63;3.20;;;19.10;56.80;;;;;;170267;28;1565;-83
2021/12/22 19:03:12;;;;;;;4.72;3.22;;;19.10;56.90;;;;;;172714;28;1517;-83
2021/12/22 19:03:27;;;;;;;4.82;3.20;;;19.10;56.80;;;;;;170695;28;5378;-83
2021/12/22 19:03:33;;;;;;;5.32;3.21;;;19.10;56.80;;;;;;171940;28;1531;-84
2021/12/22 19:03:38;;;;;;;5.30;3.45;;;19.10;56.90;;;;;;170606;28;1374;-83
2021/12/22 19:03:44;;;;;;;4.85;3.30;;;19.20;56.90;;;;;;170960;28;1327;-84
2021/12/22 19:03:50;;;;;;;4.57;3.30;;;19.20;56.90;;;;;;169803;29;1434;-83
2021/12/22 19:03:55;;;;;;;4.60;3.30;;;19.10;56.90;;;;;;170634;28;1280;-84
2021/12/22 19:04:01;;;;;;;4.22;3.20;;;19.10;56.90;;;;;;170145;29;1209;-85
2021/12/22 19:04:07;;;;;;;4.35;2.97;;;19.10;56.90;;;;;;170281;29;1312;-86
2021/12/22 19:04:13;;;;;;;4.57;2.97;;;19.10;56.90;;;;;;169569;29;1285;-83
2021/12/22 19:04:19;;;;;;;4.32;2.90;;;19.10;56.90;;;;;;170002;28;5583;-85
2021/12/22 19:04:24;;;;;;;4.17;2.90;;;19.10;56.90;;;;;;169564;28;1352;-84
2021/12/22 19:04:30;;;;;;;4.47;2.90;;;19.10;56.90;;;;;;170262;28;1264;-84
2021/12/22 19:04:35;;;;;;;4.03;2.90;;;19.10;56.90;;;;;;169665;29;1539;-84
2021/12/22 19:04:41;;;;;;;3.83;2.90;;;19.10;56.90;;;;;;171628;28;1499;-83
2021/12/22 19:04:46;;;;;;;4.38;2.90;;;19.20;56.90;;;;;;171520;28;1394;-84
2021/12/22 19:04:52;;;;;;;4.10;2.90;;;19.10;56.80;;;;;;170661;28;1239;-84
2021/12/22 19:04:57;;;;;;;4.55;2.92;;;19.10;56.80;;;;;;169420;29;1287;-82
2021/12/22 19:05:04;;;;;;;4.53;3.03;;;19.20;56.80;;;;;;170583;28;1300;-83
2021/12/22 19:05:10;;;;;;;4.75;3.10;;;19.10;56.80;;;;;;170175;28;1315;-85
2021/12/22 19:05:16;;;;;;;4.06;3.04;;;19.10;56.80;;;;;;170523;28;7095;-83
2021/12/22 19:05:24;;;;;;;4.67;3.10;;;19.10;56.80;;;;;;169565;29;1300;-84
2021/12/22 19:05:30;;;;;;;4.50;3.20;;;19.10;56.90;;;;;;169860;29;1457;-85
2021/12/22 19:05:38;;;;;;;4.97;3.33;;;19.10;56.90;;;;;;171625;28;1496;-85
2021/12/22 19:05:44;;;;;;;6.43;3.43;;;19.10;56.90;;;;;;171615;28;1440;-84
2021/12/22 19:05:50;;;;;;;6.47;3.50;;;19.10;56.80;;;;;;172332;28;1343;-83
2021/12/22 19:05:56;;;;;;;6.05;3.50;;;19.10;56.80;;;;;;171635;28;1571;-83
2021/12/22 19:06:01;;;;;;;5.83;3.33;;;19.10;56.80;;;;;;171489;28;1355;-85
2021/12/22 19:06:07;;;;;;;5.70;3.25;;;19.10;56.80;;;;;;170754;28;1497;-83
2021/12/22 19:06:15;;;;;;;5.03;3.20;;;19.10;56.80;;;;;;170340;28;1229;-84
2021/12/22 19:06:21;;;;;;;4.28;3.08;;;19.10;56.80;;;;;;170989;28;6501;-84
2021/12/22 19:06:28;;;;;;;4.00;3.10;;;19.10;56.80;;;;;;170341;28;1418;-83
2021/12/22 19:06:36;;;;;;;4.24;3.12;;;19.10;56.80;;;;;;170152;29;1530;-82
2021/12/22 19:06:42;;;;;;;4.33;3.10;;;19.10;56.80;;;;;;170964;28;1306;-82
2021/12/22 19:06:49;;;;;;;4.60;3.20;;;19.20;56.90;;;;;;171456;28;1275;-87
2021/12/22 19:07:03;;;;;;;4.78;3.20;;;19.10;56.90;;;;;;170036;28;1533;-82
2021/12/22 19:07:10;;;;;;;4.53;3.10;;;19.10;56.90;;;;;;170241;29;1467;-85
2021/12/22 19:07:16;;;;;;;4.08;3.10;;;19.10;56.90;;;;;;165072;28;5662;-84
2021/12/22 19:07:21;;;;;;;4.18;3.10;;;19.10;56.90;;;;;;168776;28;1438;-85
2021/12/22 19:07:27;;;;;;;4.67;3.13;;;19.10;56.90;;;;;;171244;28;1413;-87
2021/12/22 19:07:41;;;;;;;5.00;3.20;;;19.10;56.90;;;;;;170200;29;1333;-85
2021/12/22 19:07:47;;;;;;;5.11;3.24;;;19.10;56.90;;;;;;170735;28;1511;-85
2021/12/22 19:07:54;;;;;;;4.80;3.20;;;19.10;56.90;;;;;;169915;28;1287;-84
2021/12/22 19:08:04;;;;;;;3.70;3.03;;;19.10;56.90;;;;;;170435;28;1280;-83
2021/12/22 19:08:14;;;;;;;4.05;3.04;;;19.10;56.90;;;;;;170745;28;1519;-84
2021/12/22 19:08:20;;;;;;;4.24;3.03;;;19.10;57.00;;;;;;161523;28;7971;-84
2021/12/22 19:08:26;;;;;;;4.35;3.10;;;19.10;57.00;;;;;;171394;28;1247;-87
2021/12/22 19:08:34;;;;;;;4.75;3.20;;;19.20;57.00;;;;;;171746;28;1477;-82
2021/12/22 19:08:42;;;;;;;4.52;3.22;;;19.10;57.00;;;;;;171168;28;1445;-83
2021/12/22 19:08:51;;;;;;;4.47;3.27;;;19.10;56.90;;;;;;171294;28;1459;-84
2021/12/22 19:09:22;;;;;;;5.24;3.30;;;19.10;57.00;;;;;;170037;28;1457;-89
2021/12/22 19:09:27;;;;;;;4.64;3.22;;;19.10;57.00;;;;;;144709;33;8380;-83
2021/12/22 19:09:33;;;;;;;4.55;3.20;;;19.10;57.00;;;;;;170126;28;1417;-82
2021/12/22 19:09:49;;;;;;;4.50;3.30;;;19.10;57.00;;;;;;171028;28;1319;-85
2021/12/22 19:09:59;;;;;;;4.19;3.25;;;19.10;57.00;;;;;;170750;28;1632;-84
2021/12/22 19:10:12;;;;;;;4.36;3.41;;;19.10;57.00;;;;;;170459;28;1607;-84
2021/12/22 19:10:21;;;;;;;4.95;3.39;;;19.10;57.00;;;;;;169959;28;5602;-84
2021/12/22 19:10:30;;;;;;;5.76;3.37;;;19.10;57.00;;;;;;171337;28;1591;-83
2021/12/22 19:10:38;;;;;;;5.77;3.24;;;19.10;57.00;;;;;;171093;28;2523;-82
2021/12/22 19:10:48;;;;;;;5.80;3.47;;;19.10;57.00;;;;;;171556;28;1436;-83
2021/12/22 19:10:59;;;;;;;5.04;3.40;;;19.10;57.00;;;;;;170773;28;2532;-86
2021/12/22 19:11:06;;;;;;;4.52;3.34;;;19.10;57.10;;;;;;169751;28;1624;-86
2021/12/22 19:11:19;;;;;;;4.43;3.38;;;19.10;57.00;;;;;;170146;28;2572;-84
2021/12/22 19:11:25;;;;;;;4.54;3.26;;;19.10;57.00;;;;;;171028;28;7613;-78
2021/12/22 19:11:31;;;;;;;4.35;3.10;;;19.10;57.00;;;;;;171709;28;1225;-81
2021/12/22 19:11:36;;;;;;;3.80;2.97;;;19.10;57.00;;;;;;171582;28;1061;-78
2021/12/22 19:11:42;;;;;;;3.70;2.90;;;19.10;57.00;;;;;;172247;28;1367;-78
2021/12/22 19:11:47;;;;;;;3.80;3.00;;;19.10;57.00;;;;;;170702;28;1510;-80
2021/12/22 19:11:54;;;;;;;4.13;3.10;;;19.10;57.00;;;;;;171603;28;2539;-78
2021/12/22 19:11:59;;;;;;;4.48;3.26;;;19.10;56.90;;;;;;171268;28;1188;-78
2021/12/22 19:12:05;;;;;;;4.93;3.27;;;19.10;56.70;;;;;;171576;28;1214;-78
2021/12/22 19:12:11;;;;;;;5.00;3.37;;;19.10;56.70;;;;;;170615;28;1272;-80
2021/12/22 19:12:16;;;;;;;4.90;3.22;;;19.10;56.70;;;;;;168894;28;6357;-79
2021/12/22 19:12:22;;;;;;;4.83;3.20;;;19.10;56.80;;;;;;169815;29;1114;-79
2021/12/22 19:12:27;;;;;;;4.88;3.20;;;19.10;56.80;;;;;;170657;28;1225;-80
2021/12/22 19:12:34;;;;;;;4.43;3.13;;;19.10;56.90;;;;;;169954;28;2381;-80
2021/12/22 19:12:39;;;;;;;4.56;3.14;;;19.10;57.00;;;;;;170655;28;1553;-78
2021/12/22 19:12:45;;;;;;;5.37;3.20;;;19.10;57.00;;;;;;170451;29;1226;-78
2021/12/22 19:12:50;;;;;;;5.03;3.17;;;19.10;57.00;;;;;;171702;28;1291;-79
2021/12/22 19:12:56;;;;;;;5.37;3.17;;;19.10;57.10;;;;;;172132;28;1294;-81
2021/12/22 19:13:02;;;;;;;5.65;3.20;;;19.10;57.10;;;;;;170237;29;1238;-82
2021/12/22 19:13:08;;;;;;;6.30;3.17;;;19.10;57.00;;;;;;170029;28;1277;-78
2021/12/22 19:13:14;;;;;;;5.67;3.10;;;19.10;57.00;;;;;;169678;29;1425;-79
2021/12/22 19:13:19;;;;;;;5.57;3.10;;;19.10;57.00;;;;;;169692;28;5766;-83
2021/12/22 19:13:25;;;;;;;7.70;3.10;;;19.10;56.60;;;;;;171447;28;1276;-81
2021/12/22 19:13:31;;;;;;;7.40;3.07;;;19.10;56.50;;;;;;171611;28;1341;-81
2021/12/22 19:13:36;;;;;;;6.93;3.05;;;19.00;56.50;;;;;;172365;28;1244;-78
2021/12/22 19:13:42;;;;;;;6.43;3.07;;;19.10;56.60;;;;;;172310;28;1224;-78
2021/12/22 19:13:48;;;;;;;7.15;3.10;;;19.10;56.50;;;;;;171272;28;1249;-78
2021/12/22 19:13:53;;;;;;;5.47;3.10;;;19.00;56.60;;;;;;170514;28;1250;-78
2021/12/22 19:13:59;;;;;;;6.35;3.28;;;19.10;56.70;;;;;;170832;28;1194;-78
2021/12/22 19:14:04;;;;;;;6.50;3.30;;;19.00;56.70;;;;;;171574;28;1312;-78
2021/12/22 19:14:10;;;;;;;6.90;3.30;;;19.00;56.80;;;;;;170652;28;1236;-78
2021/12/22 19:14:15;;;;;;;6.80;3.30;;;19.10;56.90;;;;;;170748;28;5630;-78
2021/12/22 19:14:21;;;;;;;7.00;3.30;;;19.00;57.00;;;;;;171534;28;1102;-77
2021/12/22 19:14:26;;;;;;;7.23;3.37;;;19.00;57.00;;;;;;172039;28;1250;-77
2021/12/22 19:14:32;;;;;;;8.93;3.42;;;19.10;57.00;;;;;;171428;28;1240;-77
2021/12/22 19:14:37;;;;;;;8.93;3.50;;;19.00;57.00;;;;;;171576;28;1186;-78
2021/12/22 19:14:43;;;;;;;8.90;3.53;;;19.00;57.00;;;;;;171244;28;1280;-77
2021/12/22 19:14:48;;;;;;;9.23;3.60;;;19.00;57.00;;;;;;171284;28;1133;-78
2021/12/22 19:14:54;;;;;;;9.13;3.60;;;19.10;57.00;;;;;;171617;28;1509;-77
2021/12/22 19:15:00;;;;;;;6.33;3.47;;;19.10;57.00;;;;;;171356;28;1181;-79
2021/12/22 19:15:06;;;;;;;5.88;3.40;;;19.00;57.00;;;;;;171081;28;1333;-77
2021/12/22 19:15:15;;;;;;;5.67;3.43;;;19.10;57.00;;;;;;170509;28;1217;-77
2021/12/22 19:15:21;;;;;;;5.77;3.43;;;19.10;57.00;;;;;;170230;28;6329;-76
2021/12/22 19:15:28;;;;;;;6.18;3.40;;;19.00;56.90;;;;;;171065;28;1245;-76
2021/12/22 19:15:33;;;;;;;7.28;3.50;;;19.00;56.90;;;;;;171772;28;1244;-76
2021/12/22 19:15:39;;;;;;;8.10;3.60;;;19.00;57.00;;;;;;171705;28;1237;-76
2021/12/22 19:15:46;;;;;;;8.30;3.70;;;19.00;57.00;;;;;;172410;28;1221;-76
2021/12/22 19:15:52;;;;;;;8.52;3.70;;;19.10;57.00;;;;;;171455;28;2683;-77
2021/12/22 19:15:58;;;;;;;8.08;3.70;;;19.10;57.00;;;;;;171576;28;1118;-78
2021/12/22 19:16:04;;;;;;;6.53;3.60;;;19.00;57.00;;;;;;171894;28;1295;-78
2021/12/22 19:16:09;;;;;;;6.28;3.40;;;19.00;57.00;;;;;;170797;28;1173;-78
2021/12/22 19:16:15;;;;;;;5.80;3.13;;;19.00;57.00;;;;;;170821;28;5653;-79
2021/12/22 19:16:20;;;;;;;4.70;3.00;;;19.00;57.00;;;;;;171112;28;1213;-79
2021/12/22 19:16:26;;;;;;;4.63;2.83;;;19.10;57.10;;;;;;171280;28;1217;-78
2021/12/22 19:16:32;;;;;;;5.50;2.90;;;19.10;57.10;;;;;;171502;28;1249;-78
2021/12/22 19:16:37;;;;;;;7.03;2.97;;;19.10;57.10;;;;;;170749;28;1154;-80
2021/12/22 19:16:43;;;;;;;7.88;3.15;;;19.00;57.00;;;;;;170533;28;1331;-78
2021/12/22 19:16:48;;;;;;;8.30;3.20;;;19.00;57.00;;;;;;169778;29;1070;-77
2021/12/22 19:16:57;;;;;;;7.88;3.35;;;19.10;57.00;;;;;;171070;28;1075;-77
2021/12/22 19:17:03;;;;;;;6.87;3.33;;;19.10;57.00;;;;;;171648;28;1283;-78
2021/12/22 19:17:08;;;;;;;4.80;3.17;;;19.00;57.00;;;;;;171658;28;1232;-76
2021/12/22 19:17:14;;;;;;;4.15;3.17;;;19.00;57.00;;;;;;170833;28;1178;-78
2021/12/22 19:17:20;;;;;;;4.00;3.17;;;19.10;57.00;;;;;;170667;28;6065;-78
2021/12/22 19:17:26;;;;;;;4.07;3.10;;;19.00;57.00;;;;;;172408;28;1256;-78
2021/12/22 19:17:33;;;;;;;4.78;3.22;;;19.00;57.00;;;;;;171662;28;1252;-77
2021/12/22 19:17:38;;;;;;;5.37;3.30;;;19.10;57.00;;;;;;171268;28;1245;-78
2021/12/22 19:17:44;;;;;;;5.68;3.30;;;19.00;57.00;;;;;;171440;28;1260;-79
2021/12/22 19:17:50;;;;;;;6.10;3.30;;;19.10;57.00;;;;;;171715;28;1209;-78
2021/12/22 19:17:56;;;;;;;6.50;3.30;;;19.00;57.00;;;;;;171856;28;1267;-79
2021/12/22 19:18:02;;;;;;;5.82;3.25;;;19.00;57.00;;;;;;171943;28;1213;-78
2021/12/22 19:18:08;;;;;;;5.10;3.20;;;19.00;57.00;;;;;;172530;28;1400;-78
2021/12/22 19:18:14;;;;;;;5.44;3.18;;;19.00;57.00;;;;;;172277;28;1225;-79
2021/12/22 19:18:25;;;;;;;5.93;3.27;;;19.00;57.00;;;;;;172567;28;1279;-87
